sensor_id;sensor_type;location;lat;lon;timestamp;temperature;humidity
47384;DHT22;33129;52.232;5.192;2022-10-16T00:01:38;15.50;1.00
47384;DHT22;33129;52.232;5.192;2022-10-16T00:04:04;15.70;1.00
47384;DHT22;33129;52.232;5.192;2022-10-16T00:06:30;16.00;1.00
47384;DHT22;33129;52.232;5.192;2022-10-16T00:08:57;15.60;1.00
47384;DHT22;33129;52.232;5.192;2022-10-16T00:11:24;15.90;1.00
47384;DHT22;33129;52.232;5.192;2022-10-16T00:13:58;15.60;1.00
47384;DHT22;33129;52.232;5.192;2022-10-16T00:16:26;15.80;1.00
47384;DHT22;33129;52.232;5.192;2022-10-16T00:18:52;15.60;1.00
47384;DHT22;33129;52.232;5.192;2022-10-16T00:21:21;16.00;1.00
47384;DHT22;33129;52.232;5.192;2022-10-16T00:23:52;15.60;1.00
47384;DHT22;33129;52.232;5.192;2022-10-16T00:26:19;15.70;1.00
47384;DHT22;33129;52.232;5.192;2022-10-16T00:28:49;15.50;1.00
47384;DHT22;33129;52.232;5.192;2022-10-16T00:31:18;15.90;1.00
47384;DHT22;33129;52.232;5.192;2022-10-16T00:33:45;15.50;1.00
47384;DHT22;33129;52.232;5.192;2022-10-16T00:36:13;15.50;1.00
47384;DHT22;33129;52.232;5.192;2022-10-16T00:38:42;15.60;1.00
47384;DHT22;33129;52.232;5.192;2022-10-16T00:41:11;15.80;1.00
47384;DHT22;33129;52.232;5.192;2022-10-16T00:43:46;15.80;1.00
47384;DHT22;33129;52.232;5.192;2022-10-16T00:49:15;15.70;1.00
47384;DHT22;33129;52.232;5.192;2022-10-16T00:51:44;15.60;1.00
47384;DHT22;33129;52.232;5.192;2022-10-16T00:54:14;15.60;1.00
47384;DHT22;33129;52.232;5.192;2022-10-16T00:56:42;15.40;1.00
47384;DHT22;33129;52.232;5.192;2022-10-16T01:01:58;15.50;1.00
47384;DHT22;33129;52.232;5.192;2022-10-16T01:04:25;15.50;1.00
47384;DHT22;33129;52.232;5.192;2022-10-16T01:07:01;15.70;1.00
47384;DHT22;33129;52.232;5.192;2022-10-16T01:13:09;15.80;1.00
47384;DHT22;33129;52.232;5.192;2022-10-16T01:15:41;15.50;1.00
47384;DHT22;33129;52.232;5.192;2022-10-16T01:21:05;15.40;1.00
47384;DHT22;33129;52.232;5.192;2022-10-16T01:23:47;15.70;1.00
47384;DHT22;33129;52.232;5.192;2022-10-16T01:26:24;15.40;1.00
47384;DHT22;33129;52.232;5.192;2022-10-16T01:29:14;15.70;1.00
47384;DHT22;33129;52.232;5.192;2022-10-16T01:31:45;15.70;1.00
47384;DHT22;33129;52.232;5.192;2022-10-16T01:34:21;15.60;1.00
47384;DHT22;33129;52.232;5.192;2022-10-16T01:36:57;15.60;1.00
47384;DHT22;33129;52.232;5.192;2022-10-16T01:39:32;15.70;1.00
47384;DHT22;33129;52.232;5.192;2022-10-16T01:42:16;15.50;1.00
47384;DHT22;33129;52.232;5.192;2022-10-16T01:44:47;15.60;1.00
47384;DHT22;33129;52.232;5.192;2022-10-16T01:47:14;15.80;1.00
47384;DHT22;33129;52.232;5.192;2022-10-16T01:49:41;15.60;1.00
47384;DHT22;33129;52.232;5.192;2022-10-16T01:52:12;15.60;1.00
47384;DHT22;33129;52.232;5.192;2022-10-16T01:54:43;15.70;1.00
47384;DHT22;33129;52.232;5.192;2022-10-16T01:57:13;15.60;1.00
47384;DHT22;33129;52.232;5.192;2022-10-16T01:59:44;15.50;1.00
47384;DHT22;33129;52.232;5.192;2022-10-16T02:02:13;15.40;1.00
47384;DHT22;33129;52.232;5.192;2022-10-16T02:04:51;15.60;1.00
47384;DHT22;33129;52.232;5.192;2022-10-16T02:07:20;15.80;1.00
47384;DHT22;33129;52.232;5.192;2022-10-16T02:09:46;15.90;1.00
47384;DHT22;33129;52.232;5.192;2022-10-16T02:12:24;15.70;1.00
47384;DHT22;33129;52.232;5.192;2022-10-16T02:14:52;15.50;1.00
47384;DHT22;33129;52.232;5.192;2022-10-16T02:17:19;15.60;1.00
47384;DHT22;33129;52.232;5.192;2022-10-16T02:19:48;15.80;1.00
47384;DHT22;33129;52.232;5.192;2022-10-16T02:22:26;15.40;1.00
47384;DHT22;33129;52.232;5.192;2022-10-16T02:24:57;15.70;1.00
47384;DHT22;33129;52.232;5.192;2022-10-16T02:27:30;15.20;1.00
47384;DHT22;33129;52.232;5.192;2022-10-16T02:30:08;15.30;1.00
47384;DHT22;33129;52.232;5.192;2022-10-16T02:32:42;15.30;1.00
47384;DHT22;33129;52.232;5.192;2022-10-16T02:35:09;15.30;1.00
47384;DHT22;33129;52.232;5.192;2022-10-16T02:37:36;15.50;1.00
47384;DHT22;33129;52.232;5.192;2022-10-16T02:40:04;15.40;1.00
47384;DHT22;33129;52.232;5.192;2022-10-16T02:42:36;15.40;1.00
47384;DHT22;33129;52.232;5.192;2022-10-16T02:45:04;15.50;1.00
47384;DHT22;33129;52.232;5.192;2022-10-16T02:47:30;15.30;1.00
47384;DHT22;33129;52.232;5.192;2022-10-16T02:49:56;15.50;1.00
47384;DHT22;33129;52.232;5.192;2022-10-16T02:52:21;15.40;1.00
47384;DHT22;33129;52.232;5.192;2022-10-16T02:54:47;15.50;1.00
47384;DHT22;33129;52.232;5.192;2022-10-16T02:57:13;15.70;1.00
47384;DHT22;33129;52.232;5.192;2022-10-16T02:59:38;15.40;1.00
47384;DHT22;33129;52.232;5.192;2022-10-16T03:02:04;15.60;1.00
47384;DHT22;33129;52.232;5.192;2022-10-16T03:04:30;15.40;1.00
47384;DHT22;33129;52.232;5.192;2022-10-16T03:06:55;15.30;1.00
47384;DHT22;33129;52.232;5.192;2022-10-16T03:09:21;15.20;1.00
47384;DHT22;33129;52.232;5.192;2022-10-16T03:11:47;15.50;1.00
47384;DHT22;33129;52.232;5.192;2022-10-16T03:14:12;15.30;1.00
47384;DHT22;33129;52.232;5.192;2022-10-16T03:16:38;15.50;1.00
47384;DHT22;33129;52.232;5.192;2022-10-16T03:19:04;15.50;1.00
47384;DHT22;33129;52.232;5.192;2022-10-16T03:21:30;15.20;1.00
47384;DHT22;33129;52.232;5.192;2022-10-16T03:23:55;15.20;1.00
47384;DHT22;33129;52.232;5.192;2022-10-16T03:26:21;15.50;1.00
47384;DHT22;33129;52.232;5.192;2022-10-16T03:28:47;15.20;1.00
47384;DHT22;33129;52.232;5.192;2022-10-16T03:31:12;15.60;1.00
47384;DHT22;33129;52.232;5.192;2022-10-16T03:33:38;15.40;1.00
47384;DHT22;33129;52.232;5.192;2022-10-16T03:36:04;15.50;1.00
47384;DHT22;33129;52.232;5.192;2022-10-16T03:38:30;15.20;1.00
47384;DHT22;33129;52.232;5.192;2022-10-16T03:40:55;15.30;1.00
47384;DHT22;33129;52.232;5.192;2022-10-16T03:43:21;15.30;1.00
47384;DHT22;33129;52.232;5.192;2022-10-16T03:45:47;15.10;1.00
47384;DHT22;33129;52.232;5.192;2022-10-16T03:48:12;15.10;1.00
47384;DHT22;33129;52.232;5.192;2022-10-16T03:50:38;15.20;1.00
47384;DHT22;33129;52.232;5.192;2022-10-16T03:53:04;15.40;1.00
47384;DHT22;33129;52.232;5.192;2022-10-16T03:55:29;15.30;1.00
47384;DHT22;33129;52.232;5.192;2022-10-16T03:57:55;15.50;1.00
47384;DHT22;33129;52.232;5.192;2022-10-16T04:00:21;15.40;1.00
47384;DHT22;33129;52.232;5.192;2022-10-16T04:02:47;14.70;1.00
47384;DHT22;33129;52.232;5.192;2022-10-16T04:05:12;15.10;1.00
47384;DHT22;33129;52.232;5.192;2022-10-16T04:07:38;14.90;1.00
47384;DHT22;33129;52.232;5.192;2022-10-16T04:10:04;15.20;1.00
47384;DHT22;33129;52.232;5.192;2022-10-16T04:12:30;15.00;1.00
47384;DHT22;33129;52.232;5.192;2022-10-16T04:14:56;15.10;1.00
47384;DHT22;33129;52.232;5.192;2022-10-16T04:17:22;15.00;1.00
47384;DHT22;33129;52.232;5.192;2022-10-16T04:19:47;15.00;1.00
47384;DHT22;33129;52.232;5.192;2022-10-16T04:22:13;15.10;1.00
47384;DHT22;33129;52.232;5.192;2022-10-16T04:24:39;15.30;1.00
47384;DHT22;33129;52.232;5.192;2022-10-16T04:27:04;15.40;1.00
47384;DHT22;33129;52.232;5.192;2022-10-16T04:29:30;15.20;1.00
47384;DHT22;33129;52.232;5.192;2022-10-16T04:31:56;15.40;1.00
47384;DHT22;33129;52.232;5.192;2022-10-16T04:34:21;15.20;1.00
47384;DHT22;33129;52.232;5.192;2022-10-16T04:36:48;15.20;1.00
47384;DHT22;33129;52.232;5.192;2022-10-16T04:39:17;15.30;1.00
47384;DHT22;33129;52.232;5.192;2022-10-16T04:41:42;15.10;1.00
47384;DHT22;33129;52.232;5.192;2022-10-16T04:44:08;15.00;1.00
47384;DHT22;33129;52.232;5.192;2022-10-16T04:46:34;15.00;1.00
47384;DHT22;33129;52.232;5.192;2022-10-16T04:49:00;15.20;1.00
47384;DHT22;33129;52.232;5.192;2022-10-16T04:51:25;15.20;1.00
47384;DHT22;33129;52.232;5.192;2022-10-16T04:53:53;14.90;1.00
47384;DHT22;33129;52.232;5.192;2022-10-16T04:56:20;15.10;1.00
47384;DHT22;33129;52.232;5.192;2022-10-16T04:58:47;15.30;1.00
47384;DHT22;33129;52.232;5.192;2022-10-16T05:01:13;15.30;1.00
47384;DHT22;33129;52.232;5.192;2022-10-16T05:03:38;15.20;1.00
47384;DHT22;33129;52.232;5.192;2022-10-16T05:06:07;15.00;1.00
47384;DHT22;33129;52.232;5.192;2022-10-16T05:08:33;15.00;1.00
47384;DHT22;33129;52.232;5.192;2022-10-16T05:10:59;14.90;1.00
47384;DHT22;33129;52.232;5.192;2022-10-16T05:13:25;15.10;1.00
47384;DHT22;33129;52.232;5.192;2022-10-16T05:15:51;15.10;1.00
47384;DHT22;33129;52.232;5.192;2022-10-16T05:18:17;14.90;1.00
47384;DHT22;33129;52.232;5.192;2022-10-16T05:20:43;14.90;1.00
47384;DHT22;33129;52.232;5.192;2022-10-16T05:23:08;14.70;1.00
47384;DHT22;33129;52.232;5.192;2022-10-16T05:25:36;14.90;1.00
47384;DHT22;33129;52.232;5.192;2022-10-16T05:28:02;14.80;1.00
47384;DHT22;33129;52.232;5.192;2022-10-16T05:30:28;15.00;1.00
47384;DHT22;33129;52.232;5.192;2022-10-16T05:32:54;15.00;1.00
47384;DHT22;33129;52.232;5.192;2022-10-16T05:35:20;15.10;1.00
47384;DHT22;33129;52.232;5.192;2022-10-16T05:37:46;14.90;1.00
47384;DHT22;33129;52.232;5.192;2022-10-16T05:40:13;15.10;1.00
47384;DHT22;33129;52.232;5.192;2022-10-16T05:42:40;15.10;1.00
47384;DHT22;33129;52.232;5.192;2022-10-16T05:45:07;15.20;1.00
47384;DHT22;33129;52.232;5.192;2022-10-16T05:47:35;14.90;1.00
47384;DHT22;33129;52.232;5.192;2022-10-16T05:50:00;14.90;1.00
47384;DHT22;33129;52.232;5.192;2022-10-16T05:52:27;14.90;1.00
47384;DHT22;33129;52.232;5.192;2022-10-16T05:54:52;15.10;1.00
47384;DHT22;33129;52.232;5.192;2022-10-16T05:57:18;14.80;1.00
47384;DHT22;33129;52.232;5.192;2022-10-16T05:59:44;14.90;1.00
47384;DHT22;33129;52.232;5.192;2022-10-16T06:02:13;14.90;1.00
47384;DHT22;33129;52.232;5.192;2022-10-16T06:04:39;14.80;1.00
47384;DHT22;33129;52.232;5.192;2022-10-16T06:07:04;14.60;1.00
47384;DHT22;33129;52.232;5.192;2022-10-16T06:09:30;14.60;1.00
47384;DHT22;33129;52.232;5.192;2022-10-16T06:11:57;14.90;1.00
47384;DHT22;33129;52.232;5.192;2022-10-16T06:14:23;14.90;1.00
47384;DHT22;33129;52.232;5.192;2022-10-16T06:16:48;14.90;1.00
47384;DHT22;33129;52.232;5.192;2022-10-16T06:19:14;14.80;1.00
47384;DHT22;33129;52.232;5.192;2022-10-16T06:21:41;14.80;1.00
47384;DHT22;33129;52.232;5.192;2022-10-16T06:24:08;15.00;1.00
47384;DHT22;33129;52.232;5.192;2022-10-16T06:26:33;14.80;1.00
47384;DHT22;33129;52.232;5.192;2022-10-16T06:28:59;14.80;1.00
47384;DHT22;33129;52.232;5.192;2022-10-16T06:31:25;15.00;1.00
47384;DHT22;33129;52.232;5.192;2022-10-16T06:33:53;15.10;1.00
47384;DHT22;33129;52.232;5.192;2022-10-16T06:36:20;14.90;1.00
47384;DHT22;33129;52.232;5.192;2022-10-16T06:38:46;15.00;1.00
47384;DHT22;33129;52.232;5.192;2022-10-16T06:41:15;15.00;1.00
47384;DHT22;33129;52.232;5.192;2022-10-16T06:43:42;15.00;1.00
47384;DHT22;33129;52.232;5.192;2022-10-16T06:46:12;14.80;1.00
47384;DHT22;33129;52.232;5.192;2022-10-16T06:48:39;14.90;1.00
47384;DHT22;33129;52.232;5.192;2022-10-16T06:51:09;15.00;1.00
47384;DHT22;33129;52.232;5.192;2022-10-16T06:53:39;14.60;1.00
47384;DHT22;33129;52.232;5.192;2022-10-16T06:56:21;14.70;1.00
47384;DHT22;33129;52.232;5.192;2022-10-16T06:58:51;14.90;1.00
47384;DHT22;33129;52.232;5.192;2022-10-16T07:01:21;14.70;1.00
47384;DHT22;33129;52.232;5.192;2022-10-16T07:03:48;14.90;1.00
47384;DHT22;33129;52.232;5.192;2022-10-16T07:06:16;14.60;1.00
47384;DHT22;33129;52.232;5.192;2022-10-16T07:08:45;15.10;1.00
47384;DHT22;33129;52.232;5.192;2022-10-16T07:11:14;14.80;1.00
47384;DHT22;33129;52.232;5.192;2022-10-16T07:13:43;14.90;1.00
47384;DHT22;33129;52.232;5.192;2022-10-16T07:16:12;14.70;1.00
47384;DHT22;33129;52.232;5.192;2022-10-16T07:18:40;14.60;1.00
47384;DHT22;33129;52.232;5.192;2022-10-16T07:21:10;15.00;1.00
47384;DHT22;33129;52.232;5.192;2022-10-16T07:23:43;15.00;1.00
47384;DHT22;33129;52.232;5.192;2022-10-16T07:26:09;14.90;1.00
47384;DHT22;33129;52.232;5.192;2022-10-16T07:28:36;15.00;1.00
47384;DHT22;33129;52.232;5.192;2022-10-16T07:31:09;15.00;1.00
47384;DHT22;33129;52.232;5.192;2022-10-16T07:33:38;15.20;1.00
47384;DHT22;33129;52.232;5.192;2022-10-16T07:36:05;14.90;1.00
47384;DHT22;33129;52.232;5.192;2022-10-16T07:38:32;15.30;1.00
47384;DHT22;33129;52.232;5.192;2022-10-16T07:41:08;15.20;1.00
47384;DHT22;33129;52.232;5.192;2022-10-16T07:43:35;15.00;1.00
47384;DHT22;33129;52.232;5.192;2022-10-16T07:46:01;15.00;1.00
47384;DHT22;33129;52.232;5.192;2022-10-16T07:48:29;15.20;1.00
47384;DHT22;33129;52.232;5.192;2022-10-16T07:51:00;15.10;1.00
47384;DHT22;33129;52.232;5.192;2022-10-16T07:53:31;15.10;1.00
47384;DHT22;33129;52.232;5.192;2022-10-16T07:56:02;15.30;1.00
47384;DHT22;33129;52.232;5.192;2022-10-16T07:58:31;15.40;1.00
47384;DHT22;33129;52.232;5.192;2022-10-16T08:00:58;15.30;1.00
47384;DHT22;33129;52.232;5.192;2022-10-16T08:07:07;16.40;1.00
47384;DHT22;33129;52.232;5.192;2022-10-16T08:09:34;17.70;1.00
47384;DHT22;33129;52.232;5.192;2022-10-16T08:12:05;18.60;1.00
47384;DHT22;33129;52.232;5.192;2022-10-16T08:14:31;19.60;1.00
47384;DHT22;33129;52.232;5.192;2022-10-16T08:16:57;20.30;1.00
47384;DHT22;33129;52.232;5.192;2022-10-16T08:19:22;21.10;1.00
47384;DHT22;33129;52.232;5.192;2022-10-16T08:21:48;21.00;1.00
47384;DHT22;33129;52.232;5.192;2022-10-16T08:24:14;21.80;1.00
47384;DHT22;33129;52.232;5.192;2022-10-16T08:26:39;21.70;1.00
47384;DHT22;33129;52.232;5.192;2022-10-16T08:29:07;21.60;1.00
47384;DHT22;33129;52.232;5.192;2022-10-16T08:31:32;21.30;1.00
47384;DHT22;33129;52.232;5.192;2022-10-16T08:33:58;21.10;1.00
47384;DHT22;33129;52.232;5.192;2022-10-16T08:36:24;21.10;1.00
47384;DHT22;33129;52.232;5.192;2022-10-16T08:38:50;21.00;1.00
47384;DHT22;33129;52.232;5.192;2022-10-16T08:49:59;20.20;1.00
47384;DHT22;33129;52.232;5.192;2022-10-16T08:52:31;20.20;1.00
47384;DHT22;33129;52.232;5.192;2022-10-16T08:55:01;19.90;1.00
47384;DHT22;33129;52.232;5.192;2022-10-16T08:57:27;20.00;1.00
47384;DHT22;33129;52.232;5.192;2022-10-16T08:59:53;20.20;1.00
47384;DHT22;33129;52.232;5.192;2022-10-16T09:04:58;20.40;1.00
47384;DHT22;33129;52.232;5.192;2022-10-16T09:13:11;21.10;1.00
47384;DHT22;33129;52.232;5.192;2022-10-16T09:21:41;20.60;1.00
47384;DHT22;33129;52.232;5.192;2022-10-16T09:24:14;20.40;1.00
47384;DHT22;33129;52.232;5.192;2022-10-16T09:26:42;20.00;1.00
47384;DHT22;33129;52.232;5.192;2022-10-16T09:29:16;19.80;1.00
47384;DHT22;33129;52.232;5.192;2022-10-16T09:31:45;19.90;1.00
47384;DHT22;33129;52.232;5.192;2022-10-16T09:34:33;20.30;1.00
47384;DHT22;33129;52.232;5.192;2022-10-16T09:37:04;20.40;1.00
47384;DHT22;33129;52.232;5.192;2022-10-16T09:39:45;20.70;1.00
47384;DHT22;33129;52.232;5.192;2022-10-16T09:42:27;21.10;1.00
47384;DHT22;33129;52.232;5.192;2022-10-16T09:44:56;20.80;1.00
47384;DHT22;33129;52.232;5.192;2022-10-16T09:47:27;20.10;1.00
47384;DHT22;33129;52.232;5.192;2022-10-16T09:50:13;20.60;1.00
47384;DHT22;33129;52.232;5.192;2022-10-16T09:52:46;20.70;1.00
47384;DHT22;33129;52.232;5.192;2022-10-16T09:55:17;20.40;1.00
47384;DHT22;33129;52.232;5.192;2022-10-16T09:57:53;20.80;1.00
47384;DHT22;33129;52.232;5.192;2022-10-16T10:00:21;21.10;1.00
47384;DHT22;33129;52.232;5.192;2022-10-16T10:02:47;21.50;99.90
47384;DHT22;33129;52.232;5.192;2022-10-16T10:05:20;20.80;99.90
47384;DHT22;33129;52.232;5.192;2022-10-16T10:08:01;21.20;99.90
47384;DHT22;33129;52.232;5.192;2022-10-16T10:10:33;21.90;99.90
47384;DHT22;33129;52.232;5.192;2022-10-16T10:13:02;22.20;99.90
47384;DHT22;33129;52.232;5.192;2022-10-16T10:15:33;22.60;99.90
47384;DHT22;33129;52.232;5.192;2022-10-16T10:18:00;22.10;99.90
47384;DHT22;33129;52.232;5.192;2022-10-16T10:20:31;21.20;99.90
47384;DHT22;33129;52.232;5.192;2022-10-16T10:23:00;21.30;99.90
47384;DHT22;33129;52.232;5.192;2022-10-16T10:25:44;21.30;99.90
47384;DHT22;33129;52.232;5.192;2022-10-16T10:28:28;21.20;99.90
47384;DHT22;33129;52.232;5.192;2022-10-16T10:43:47;22.10;99.90
47384;DHT22;33129;52.232;5.192;2022-10-16T10:46:41;22.60;99.90
47384;DHT22;33129;52.232;5.192;2022-10-16T11:01:30;21.70;99.90
47384;DHT22;33129;52.232;5.192;2022-10-16T11:04:25;22.00;99.90
47384;DHT22;33129;52.232;5.192;2022-10-16T11:06:59;22.20;99.90
47384;DHT22;33129;52.232;5.192;2022-10-16T11:09:38;21.50;99.90
47384;DHT22;33129;52.232;5.192;2022-10-16T11:12:29;21.60;99.90
47384;DHT22;33129;52.232;5.192;2022-10-16T11:15:14;21.50;99.90
47384;DHT22;33129;52.232;5.192;2022-10-16T11:18:05;21.70;99.90
47384;DHT22;33129;52.232;5.192;2022-10-16T11:20:47;21.70;99.90
47384;DHT22;33129;52.232;5.192;2022-10-16T11:23:26;22.30;99.90
47384;DHT22;33129;52.232;5.192;2022-10-16T11:25:59;22.60;99.90
47384;DHT22;33129;52.232;5.192;2022-10-16T11:28:32;22.90;99.90
47384;DHT22;33129;52.232;5.192;2022-10-16T11:31:28;23.00;99.90
47384;DHT22;33129;52.232;5.192;2022-10-16T11:34:06;23.10;99.90
47384;DHT22;33129;52.232;5.192;2022-10-16T11:36:55;22.80;99.90
47384;DHT22;33129;52.232;5.192;2022-10-16T11:39:26;22.60;99.90
47384;DHT22;33129;52.232;5.192;2022-10-16T11:55:49;22.60;99.90
47384;DHT22;33129;52.232;5.192;2022-10-16T12:07:09;22.90;99.90
47384;DHT22;33129;52.232;5.192;2022-10-16T12:09:40;22.90;99.90
47384;DHT22;33129;52.232;5.192;2022-10-16T12:15:27;23.00;99.90
47384;DHT22;33129;52.232;5.192;2022-10-16T12:17:55;23.50;99.90
47384;DHT22;33129;52.232;5.192;2022-10-16T12:20:27;23.30;99.90
47384;DHT22;33129;52.232;5.192;2022-10-16T12:23:07;23.30;99.90
47384;DHT22;33129;52.232;5.192;2022-10-16T12:25:57;23.30;99.90
47384;DHT22;33129;52.232;5.192;2022-10-16T12:28:32;23.40;99.90
47384;DHT22;33129;52.232;5.192;2022-10-16T12:31:03;23.50;99.90
47384;DHT22;33129;52.232;5.192;2022-10-16T12:33:33;23.60;99.90
47384;DHT22;33129;52.232;5.192;2022-10-16T12:36:12;23.70;99.90
47384;DHT22;33129;52.232;5.192;2022-10-16T12:38:49;23.50;99.90
47384;DHT22;33129;52.232;5.192;2022-10-16T12:41:34;23.50;99.90
47384;DHT22;33129;52.232;5.192;2022-10-16T12:44:02;23.10;99.90
47384;DHT22;33129;52.232;5.192;2022-10-16T12:51:40;22.80;99.90
47384;DHT22;33129;52.232;5.192;2022-10-16T12:56:38;22.00;99.90
47384;DHT22;33129;52.232;5.192;2022-10-16T12:59:38;21.70;99.90
47384;DHT22;33129;52.232;5.192;2022-10-16T13:08:32;21.70;99.90
47384;DHT22;33129;52.232;5.192;2022-10-16T13:19:31;21.90;99.90
47384;DHT22;33129;52.232;5.192;2022-10-16T13:22:30;22.10;99.90
47384;DHT22;33129;52.232;5.192;2022-10-16T13:28:04;22.10;99.90
47384;DHT22;33129;52.232;5.192;2022-10-16T13:30:43;22.30;99.90
47384;DHT22;33129;52.232;5.192;2022-10-16T13:33:21;22.00;99.90
47384;DHT22;33129;52.232;5.192;2022-10-16T13:35:55;22.00;99.90
47384;DHT22;33129;52.232;5.192;2022-10-16T13:38:28;21.80;99.90
47384;DHT22;33129;52.232;5.192;2022-10-16T13:41:04;21.70;99.90
47384;DHT22;33129;52.232;5.192;2022-10-16T13:43:46;21.50;99.90
47384;DHT22;33129;52.232;5.192;2022-10-16T13:46:15;21.40;99.90
47384;DHT22;33129;52.232;5.192;2022-10-16T13:48:42;21.50;99.90
47384;DHT22;33129;52.232;5.192;2022-10-16T13:51:18;21.20;99.90
47384;DHT22;33129;52.232;5.192;2022-10-16T13:53:45;21.10;99.90
47384;DHT22;33129;52.232;5.192;2022-10-16T13:56:13;21.20;99.90
47384;DHT22;33129;52.232;5.192;2022-10-16T13:58:42;21.50;99.90
47384;DHT22;33129;52.232;5.192;2022-10-16T14:01:18;21.10;99.90
47384;DHT22;33129;52.232;5.192;2022-10-16T14:03:46;21.40;99.90
47384;DHT22;33129;52.232;5.192;2022-10-16T14:06:14;21.50;99.90
47384;DHT22;33129;52.232;5.192;2022-10-16T14:08:46;21.20;99.90
47384;DHT22;33129;52.232;5.192;2022-10-16T14:11:22;21.40;99.90
47384;DHT22;33129;52.232;5.192;2022-10-16T14:13:52;21.40;99.90
47384;DHT22;33129;52.232;5.192;2022-10-16T14:16:25;21.50;99.90
47384;DHT22;33129;52.232;5.192;2022-10-16T14:18:59;21.40;99.90
47384;DHT22;33129;52.232;5.192;2022-10-16T14:21:26;21.60;99.90
47384;DHT22;33129;52.232;5.192;2022-10-16T14:23:53;21.40;99.90
47384;DHT22;33129;52.232;5.192;2022-10-16T14:26:25;21.50;99.90
47384;DHT22;33129;52.232;5.192;2022-10-16T14:29:11;21.40;99.90
47384;DHT22;33129;52.232;5.192;2022-10-16T14:31:54;21.20;99.90
47384;DHT22;33129;52.232;5.192;2022-10-16T14:36:59;21.50;99.90
47384;DHT22;33129;52.232;5.192;2022-10-16T14:39:32;21.10;99.90
47384;DHT22;33129;52.232;5.192;2022-10-16T14:41:58;21.10;99.90
47384;DHT22;33129;52.232;5.192;2022-10-16T14:44:33;21.30;99.90
47384;DHT22;33129;52.232;5.192;2022-10-16T14:47:08;21.20;99.90
47384;DHT22;33129;52.232;5.192;2022-10-16T14:49:35;21.10;99.90
47384;DHT22;33129;52.232;5.192;2022-10-16T14:52:01;21.10;99.90
47384;DHT22;33129;52.232;5.192;2022-10-16T14:54:27;21.20;99.90
47384;DHT22;33129;52.232;5.192;2022-10-16T14:56:54;21.20;99.90
47384;DHT22;33129;52.232;5.192;2022-10-16T14:59:26;21.20;99.90
47384;DHT22;33129;52.232;5.192;2022-10-16T15:01:54;21.10;99.90
47384;DHT22;33129;52.232;5.192;2022-10-16T15:04:20;21.30;99.90
47384;DHT22;33129;52.232;5.192;2022-10-16T15:06:46;21.20;99.90
47384;DHT22;33129;52.232;5.192;2022-10-16T15:09:12;21.20;99.90
47384;DHT22;33129;52.232;5.192;2022-10-16T15:11:37;21.30;99.90
47384;DHT22;33129;52.232;5.192;2022-10-16T15:14:04;21.40;99.90
47384;DHT22;33129;52.232;5.192;2022-10-16T15:16:30;21.50;99.90
47384;DHT22;33129;52.232;5.192;2022-10-16T15:18:58;21.30;99.90
47384;DHT22;33129;52.232;5.192;2022-10-16T15:21:29;21.20;99.90
47384;DHT22;33129;52.232;5.192;2022-10-16T15:23:57;21.20;99.90
47384;DHT22;33129;52.232;5.192;2022-10-16T15:26:24;21.30;99.90
47384;DHT22;33129;52.232;5.192;2022-10-16T15:28:51;21.60;99.90
47384;DHT22;33129;52.232;5.192;2022-10-16T15:31:17;21.50;99.90
47384;DHT22;33129;52.232;5.192;2022-10-16T15:33:43;21.40;99.90
47384;DHT22;33129;52.232;5.192;2022-10-16T15:36:09;21.40;99.90
47384;DHT22;33129;52.232;5.192;2022-10-16T15:38:35;21.30;99.90
47384;DHT22;33129;52.232;5.192;2022-10-16T15:41:01;21.20;99.90
47384;DHT22;33129;52.232;5.192;2022-10-16T15:43:27;21.00;99.90
47384;DHT22;33129;52.232;5.192;2022-10-16T15:46:00;21.30;99.90
47384;DHT22;33129;52.232;5.192;2022-10-16T15:48:30;21.30;99.90
47384;DHT22;33129;52.232;5.192;2022-10-16T15:50:57;21.30;99.90
47384;DHT22;33129;52.232;5.192;2022-10-16T15:53:23;21.30;99.90
47384;DHT22;33129;52.232;5.192;2022-10-16T15:55:49;21.30;99.90
47384;DHT22;33129;52.232;5.192;2022-10-16T15:58:15;21.30;99.90
47384;DHT22;33129;52.232;5.192;2022-10-16T16:00:41;21.30;99.90
47384;DHT22;33129;52.232;5.192;2022-10-16T16:03:07;21.10;99.90
47384;DHT22;33129;52.232;5.192;2022-10-16T16:05:32;20.60;99.90
47384;DHT22;33129;52.232;5.192;2022-10-16T16:08:00;21.10;99.90
47384;DHT22;33129;52.232;5.192;2022-10-16T16:10:26;21.00;99.90
47384;DHT22;33129;52.232;5.192;2022-10-16T16:12:52;20.90;99.90
47384;DHT22;33129;52.232;5.192;2022-10-16T16:15:21;20.80;99.90
47384;DHT22;33129;52.232;5.192;2022-10-16T16:17:48;20.30;99.90
47384;DHT22;33129;52.232;5.192;2022-10-16T16:20:14;20.60;99.90
47384;DHT22;33129;52.232;5.192;2022-10-16T16:22:40;20.60;99.90
47384;DHT22;33129;52.232;5.192;2022-10-16T16:25:06;20.50;99.90
47384;DHT22;33129;52.232;5.192;2022-10-16T16:27:32;20.40;99.90
47384;DHT22;33129;52.232;5.192;2022-10-16T16:30:00;20.10;99.90
47384;DHT22;33129;52.232;5.192;2022-10-16T16:32:26;20.40;99.90
47384;DHT22;33129;52.232;5.192;2022-10-16T16:34:52;20.10;99.90
47384;DHT22;33129;52.232;5.192;2022-10-16T16:37:18;19.70;99.90
47384;DHT22;33129;52.232;5.192;2022-10-16T16:39:43;19.70;99.90
47384;DHT22;33129;52.232;5.192;2022-10-16T16:42:09;20.00;99.90
47384;DHT22;33129;52.232;5.192;2022-10-16T16:44:36;20.00;99.90
47384;DHT22;33129;52.232;5.192;2022-10-16T16:47:03;20.00;99.90
47384;DHT22;33129;52.232;5.192;2022-10-16T16:49:29;19.50;99.90
47384;DHT22;33129;52.232;5.192;2022-10-16T16:51:56;19.80;99.90
47384;DHT22;33129;52.232;5.192;2022-10-16T16:54:21;19.50;99.90
47384;DHT22;33129;52.232;5.192;2022-10-16T16:56:47;19.90;99.90
47384;DHT22;33129;52.232;5.192;2022-10-16T16:59:18;19.80;99.90
47384;DHT22;33129;52.232;5.192;2022-10-16T17:01:46;19.80;99.90
47384;DHT22;33129;52.232;5.192;2022-10-16T17:04:12;19.80;99.90
47384;DHT22;33129;52.232;5.192;2022-10-16T17:06:40;19.70;99.90
47384;DHT22;33129;52.232;5.192;2022-10-16T17:09:07;19.40;99.90
47384;DHT22;33129;52.232;5.192;2022-10-16T17:11:33;19.10;99.90
47384;DHT22;33129;52.232;5.192;2022-10-16T17:14:00;19.30;99.90
47384;DHT22;33129;52.232;5.192;2022-10-16T17:16:33;19.50;99.90
47384;DHT22;33129;52.232;5.192;2022-10-16T17:19:05;19.70;99.90
47384;DHT22;33129;52.232;5.192;2022-10-16T17:21:33;19.20;99.90
47384;DHT22;33129;52.232;5.192;2022-10-16T17:23:59;19.30;99.90
47384;DHT22;33129;52.232;5.192;2022-10-16T17:26:26;19.00;99.90
47384;DHT22;33129;52.232;5.192;2022-10-16T17:28:54;18.90;99.90
47384;DHT22;33129;52.232;5.192;2022-10-16T17:31:24;19.10;99.90
47384;DHT22;33129;52.232;5.192;2022-10-16T17:33:51;18.70;99.90
47384;DHT22;33129;52.232;5.192;2022-10-16T17:36:18;18.90;99.90
47384;DHT22;33129;52.232;5.192;2022-10-16T17:38:46;19.20;99.90
47384;DHT22;33129;52.232;5.192;2022-10-16T17:41:17;18.90;99.90
47384;DHT22;33129;52.232;5.192;2022-10-16T17:43:45;19.30;99.90
47384;DHT22;33129;52.232;5.192;2022-10-16T17:46:13;19.00;99.90
47384;DHT22;33129;52.232;5.192;2022-10-16T17:48:42;18.90;99.90
47384;DHT22;33129;52.232;5.192;2022-10-16T17:51:11;19.00;99.90
47384;DHT22;33129;52.232;5.192;2022-10-16T17:53:39;19.10;99.90